Time;durP1;ratioP1;P1;durP2;ratioP2;P2;SDS_P1;SDS_P2;PMS_P1;PMS_P2;Temp;Humidity;BMP_temperature;BMP_pressure;BME280_temperature;BME280_humidity;BME280_pressure;Samples;Min_cycle;Max_cycle;Signal;HPM_P1;HPM_P2
2022/07/21 00:02:06;;;;;;;;;;;22.80;75.10;;;;;;5059017;28;19965;-96
2022/07/21 00:04:31;;;;;;;;;;;22.70;74.40;;;;;;5059460;28;19939;-96
2022/07/21 00:06:57;;;;;;;;;;;22.80;74.00;;;;;;5059963;28;20411;-96
2022/07/21 00:09:23;;;;;;;;;;;22.80;74.50;;;;;;5060165;28;19939;-96
2022/07/21 00:11:49;;;;;;;;;;;22.80;73.50;;;;;;5056644;28;19990;-96
2022/07/21 00:14:14;;;;;;;;;;;22.60;73.10;;;;;;5058420;28;19951;-96
2022/07/21 00:16:40;;;;;;;;;;;22.60;73.80;;;;;;5058624;28;20414;-96
2022/07/21 00:19:06;;;;;;;;;;;22.40;73.30;;;;;;5057187;28;19944;-96
2022/07/21 00:21:32;;;;;;;;;;;22.50;73.80;;;;;;5059493;28;19969;-96
2022/07/21 00:23:57;;;;;;;;;;;22.50;74.10;;;;;;5058046;28;19950;-96
2022/07/21 00:26:23;;;;;;;;;;;22.40;74.20;;;;;;5058238;28;19944;-96
2022/07/21 00:28:49;;;;;;;;;;;22.30;75.00;;;;;;5058772;28;19978;-96
2022/07/21 00:31:15;;;;;;;;;;;22.30;74.90;;;;;;5059358;28;19951;-96
2022/07/21 00:33:41;;;;;;;;;;;22.30;74.20;;;;;;5059362;28;19946;-96
2022/07/21 00:36:06;;;;;;;;;;;22.40;73.20;;;;;;5057692;28;19950;-96
2022/07/21 00:38:32;;;;;;;;;;;22.40;73.70;;;;;;5059800;28;20309;-96
2022/07/21 00:40:58;;;;;;;;;;;22.40;74.10;;;;;;5057557;28;19973;-96
2022/07/21 00:43:23;;;;;;;;;;;22.40;73.90;;;;;;5059457;28;19998;-96
2022/07/21 00:45:51;;;;;;;;;;;22.50;73.80;;;;;;5059913;28;19942;-96
2022/07/21 00:48:17;;;;;;;;;;;22.50;73.80;;;;;;5058779;28;19948;-96
2022/07/21 00:50:43;;;;;;;;;;;22.50;74.20;;;;;;5058226;28;19940;-96
2022/07/21 00:53:08;;;;;;;;;;;22.50;74.20;;;;;;5057072;28;20334;-96
2022/07/21 00:55:34;;;;;;;;;;;22.50;74.60;;;;;;5056306;28;20402;-96
2022/07/21 00:58:00;;;;;;;;;;;22.50;74.70;;;;;;5055987;28;19942;-96
2022/07/21 01:00:27;;;;;;;;;;;22.50;74.90;;;;;;5056095;28;20007;-96
2022/07/21 01:02:53;;;;;;;;;;;22.50;74.70;;;;;;5057464;28;19939;-96
2022/07/21 01:05:19;;;;;;;;;;;22.30;74.00;;;;;;5056524;28;19942;-96
2022/07/21 01:07:51;;;;;;;;;;;22.30;75.40;;;;;;5056853;28;20029;-96
2022/07/21 01:10:18;;;;;;;;;;;22.30;75.30;;;;;;5057253;28;19981;-96
2022/07/21 01:12:45;;;;;;;;;;;22.20;75.60;;;;;;5057159;28;19945;-96
2022/07/21 01:15:12;;;;;;;;;;;22.00;75.40;;;;;;5054598;28;19943;-96
2022/07/21 01:17:38;;;;;;;;;;;21.70;75.00;;;;;;5055169;28;19940;-96
2022/07/21 01:20:05;;;;;;;;;;;21.40;75.90;;;;;;5055620;28;19991;-96
2022/07/21 01:22:31;;;;;;;;;;;21.30;76.60;;;;;;5054999;28;19962;-96
2022/07/21 01:24:57;;;;;;;;;;;21.30;77.50;;;;;;5055165;28;20031;-96
2022/07/21 01:27:24;;;;;;;;;;;21.20;78.40;;;;;;5055914;28;20034;-96
2022/07/21 01:29:50;;;;;;;;;;;21.30;78.50;;;;;;5045306;22;19991;-96
2022/07/21 01:32:16;;;;;;;;;;;21.30;78.80;;;;;;5036129;28;19941;-96
2022/07/21 01:34:41;;;;;;;;;;;21.50;78.40;;;;;;5034646;28;20044;-96
2022/07/21 01:37:07;;;;;;;;;;;21.60;77.60;;;;;;5036700;28;19987;-96
2022/07/21 01:42:17;;;;;;;;;;;21.70;77.20;;;;;;5041758;28;19972;-96
2022/07/21 01:44:42;;;;;;;;;;;21.60;77.30;;;;;;5056302;28;20029;-96
2022/07/21 01:47:08;;;;;;;;;;;21.40;77.90;;;;;;5054910;28;20042;-96
2022/07/21 01:49:34;;;;;;;;;;;21.30;78.00;;;;;;5054821;28;19939;-96
2022/07/21 01:52:00;;;;;;;;;;;21.20;78.00;;;;;;5056434;28;20007;-96
2022/07/21 01:54:25;;;;;;;;;;;21.10;78.50;;;;;;5056629;28;19940;-96
2022/07/21 01:56:51;;;;;;;;;;;21.20;78.80;;;;;;5055950;28;20004;-96
2022/07/21 01:59:16;;;;;;;;;;;21.30;78.40;;;;;;5056985;28;19960;-96
2022/07/21 02:01:42;;;;;;;;;;;21.30;78.50;;;;;;5055264;28;19965;-96
2022/07/21 02:04:08;;;;;;;;;;;21.30;78.00;;;;;;5055607;28;20022;-96
2022/07/21 02:06:34;;;;;;;;;;;21.30;77.70;;;;;;5057798;28;19992;-96
2022/07/21 02:08:59;;;;;;;;;;;21.30;77.40;;;;;;5056417;28;19993;-96
2022/07/21 02:11:25;;;;;;;;;;;21.30;77.80;;;;;;5056317;28;19938;-96
2022/07/21 02:13:51;;;;;;;;;;;21.40;77.20;;;;;;5055348;28;20360;-96
2022/07/21 02:16:16;;;;;;;;;;;21.30;77.90;;;;;;5055720;28;19939;-96
2022/07/21 02:18:43;;;;;;;;;;;21.20;78.60;;;;;;5056989;28;19968;-96
2022/07/21 02:21:08;;;;;;;;;;;21.30;78.40;;;;;;5059306;28;19959;-96
2022/07/21 02:23:34;;;;;;;;;;;21.40;78.00;;;;;;5059406;28;20318;-97
2022/07/21 02:26:00;;;;;;;;;;;21.50;77.80;;;;;;5058069;28;19992;-96
2022/07/21 02:28:26;;;;;;;;;;;21.60;77.30;;;;;;5057877;28;19968;-96
2022/07/21 02:30:52;;;;;;;;;;;21.40;77.80;;;;;;5058762;28;19937;-96
2022/07/21 02:33:18;;;;;;;;;;;21.20;78.40;;;;;;5059487;28;19989;-96
2022/07/21 02:35:44;;;;;;;;;;;21.10;78.80;;;;;;5059138;28;19943;-96
2022/07/21 02:38:11;;;;;;;;;;;21.00;79.50;;;;;;5059320;28;20041;-96
2022/07/21 02:40:37;;;;;;;;;;;20.90;79.60;;;;;;5058863;28;20053;-96
2022/07/21 02:43:03;;;;;;;;;;;20.90;79.80;;;;;;5059338;28;19954;-96
2022/07/21 02:45:28;;;;;;;;;;;20.80;80.00;;;;;;5057886;28;19970;-96
2022/07/21 02:47:56;;;;;;;;;;;20.90;80.00;;;;;;5059345;28;20030;-96
2022/07/21 02:50:22;;;;;;;;;;;21.00;80.00;;;;;;5057717;28;19996;-96
2022/07/21 02:52:48;;;;;;;;;;;20.90;79.80;;;;;;5057829;28;19949;-96
2022/07/21 02:55:14;;;;;;;;;;;20.90;79.50;;;;;;5058921;28;19946;-96
2022/07/21 02:57:40;;;;;;;;;;;20.90;79.20;;;;;;5058265;28;19956;-96
2022/07/21 03:00:06;;;;;;;;;;;20.80;79.10;;;;;;5060100;28;20025;-96
2022/07/21 03:02:32;;;;;;;;;;;20.90;78.60;;;;;;5059426;28;20006;-96
2022/07/21 03:04:58;;;;;;;;;;;20.80;79.80;;;;;;5059807;28;19942;-96
2022/07/21 03:07:24;;;;;;;;;;;20.80;80.50;;;;;;5060162;28;19942;-96
2022/07/21 03:09:49;;;;;;;;;;;20.70;80.00;;;;;;5057955;28;20023;-96
2022/07/21 03:12:15;;;;;;;;;;;20.70;79.90;;;;;;5059507;28;20033;-96
2022/07/21 03:14:41;;;;;;;;;;;20.70;80.70;;;;;;5059280;28;20306;-96
2022/07/21 03:17:06;;;;;;;;;;;20.80;80.60;;;;;;5057585;28;19940;-96
2022/07/21 03:19:32;;;;;;;;;;;20.90;80.20;;;;;;5056892;28;19946;-96
2022/07/21 03:21:58;;;;;;;;;;;21.00;79.70;;;;;;5056505;28;20448;-96
2022/07/21 03:24:23;;;;;;;;;;;20.90;79.90;;;;;;5056694;28;19944;-96
2022/07/21 03:26:49;;;;;;;;;;;20.90;79.60;;;;;;5057781;28;20380;-96
2022/07/21 03:29:14;;;;;;;;;;;20.80;79.60;;;;;;5057016;28;20025;-96
2022/07/21 03:31:40;;;;;;;;;;;20.70;80.20;;;;;;5055882;28;19949;-96
2022/07/21 03:34:06;;;;;;;;;;;20.80;80.50;;;;;;5056938;28;19946;-96
2022/07/21 03:36:32;;;;;;;;;;;20.60;80.50;;;;;;5056615;28;19939;-96
2022/07/21 03:38:57;;;;;;;;;;;20.50;79.50;;;;;;5056582;28;19963;-96
2022/07/21 03:41:23;;;;;;;;;;;20.30;80.70;;;;;;5056172;28;20439;-96
2022/07/21 03:43:48;;;;;;;;;;;20.20;81.20;;;;;;5056667;28;19962;-96
2022/07/21 03:46:14;;;;;;;;;;;20.20;81.50;;;;;;5058146;28;19982;-96
2022/07/21 03:48:40;;;;;;;;;;;20.20;80.90;;;;;;5056894;28;19949;-96
2022/07/21 03:51:05;;;;;;;;;;;20.30;80.60;;;;;;5058077;28;19946;-96
2022/07/21 03:53:31;;;;;;;;;;;20.20;80.60;;;;;;5057797;28;20000;-96
2022/07/21 03:55:57;;;;;;;;;;;20.30;80.80;;;;;;5056622;28;19955;-96
2022/07/21 03:58:22;;;;;;;;;;;20.50;80.40;;;;;;5058803;28;20330;-96
2022/07/21 04:00:48;;;;;;;;;;;20.50;80.30;;;;;;5056608;28;19965;-96
2022/07/21 04:03:14;;;;;;;;;;;20.50;80.40;;;;;;5057207;28;20033;-96
2022/07/21 04:05:41;;;;;;;;;;;20.40;80.80;;;;;;5058271;28;20408;-96
2022/07/21 04:08:07;;;;;;;;;;;20.50;80.40;;;;;;5058518;28;19949;-96
2022/07/21 04:10:34;;;;;;;;;;;20.50;79.80;;;;;;5058901;28;19939;-96
2022/07/21 04:13:00;;;;;;;;;;;20.40;80.00;;;;;;5057442;28;19946;-96
2022/07/21 04:15:26;;;;;;;;;;;20.40;80.20;;;;;;5056929;28;20040;-96
2022/07/21 04:17:52;;;;;;;;;;;20.40;80.30;;;;;;5059590;28;20012;-96
2022/07/21 04:20:18;;;;;;;;;;;20.40;79.90;;;;;;5057846;28;20502;-96
2022/07/21 04:22:44;;;;;;;;;;;20.60;80.40;;;;;;5059219;28;20076;-96
2022/07/21 04:25:10;;;;;;;;;;;20.60;80.10;;;;;;5057776;28;19949;-96
2022/07/21 04:27:36;;;;;;;;;;;20.60;80.00;;;;;;5059745;28;19938;-96
2022/07/21 04:30:02;;;;;;;;;;;20.50;80.70;;;;;;5077451;28;20020;-96
2022/07/21 04:32:28;;;;;;;;;;;20.40;81.20;;;;;;5081944;28;19946;-96
2022/07/21 04:34:54;;;;;;;;;;;20.40;81.60;;;;;;5083072;28;19938;-96
2022/07/21 04:37:19;;;;;;;;;;;20.40;81.60;;;;;;5064246;28;19938;-96
2022/07/21 04:39:45;;;;;;;;;;;20.30;81.80;;;;;;5081178;28;20083;-96
2022/07/21 04:42:11;;;;;;;;;;;20.30;82.10;;;;;;5081035;28;19984;-96
2022/07/21 04:44:36;;;;;;;;;;;20.30;82.40;;;;;;5082470;28;19983;-96
2022/07/21 04:47:02;;;;;;;;;;;20.40;82.60;;;;;;5064388;28;19953;-96
2022/07/21 04:49:28;;;;;;;;;;;20.60;82.50;;;;;;5082154;28;19946;-96
2022/07/21 04:51:54;;;;;;;;;;;20.70;82.40;;;;;;5080478;28;19938;-96
2022/07/21 04:54:19;;;;;;;;;;;20.70;82.50;;;;;;5080949;28;19937;-96
2022/07/21 04:56:45;;;;;;;;;;;20.80;82.70;;;;;;5078406;28;19947;-96
2022/07/21 04:59:11;;;;;;;;;;;21.00;82.60;;;;;;5058049;28;19942;-96
2022/07/21 05:01:37;;;;;;;;;;;21.30;82.20;;;;;;5077256;28;19960;-96
2022/07/21 05:04:03;;;;;;;;;;;21.40;81.40;;;;;;5059185;28;20047;-96
2022/07/21 05:06:29;;;;;;;;;;;21.50;80.70;;;;;;5057729;28;19951;-96
2022/07/21 05:08:55;;;;;;;;;;;21.50;80.40;;;;;;5076099;28;19945;-96
2022/07/21 05:11:20;;;;;;;;;;;21.40;79.80;;;;;;5057126;28;20011;-96
2022/07/21 05:13:46;;;;;;;;;;;21.50;80.10;;;;;;5058144;28;19947;-96
2022/07/21 05:16:12;;;;;;;;;;;21.60;79.90;;;;;;5077157;28;19937;-96
2022/07/21 05:18:38;;;;;;;;;;;21.60;80.40;;;;;;5078242;28;19936;-96
2022/07/21 05:21:03;;;;;;;;;;;21.80;79.80;;;;;;5078915;28;19973;-96
2022/07/21 05:23:29;;;;;;;;;;;21.80;78.80;;;;;;5057306;28;19955;-96
2022/07/21 05:25:55;;;;;;;;;;;22.00;78.40;;;;;;5059164;28;20421;-96
2022/07/21 05:28:20;;;;;;;;;;;22.10;78.10;;;;;;5078984;28;19982;-96
2022/07/21 05:30:47;;;;;;;;;;;22.20;77.80;;;;;;5061251;28;19945;-96
2022/07/21 05:33:12;;;;;;;;;;;22.30;77.20;;;;;;5062336;28;20467;-96
2022/07/21 05:35:38;;;;;;;;;;;22.40;77.20;;;;;;5081274;28;19943;-97
2022/07/21 05:38:05;;;;;;;;;;;22.50;76.50;;;;;;5082443;28;19933;-96
2022/07/21 05:40:30;;;;;;;;;;;22.70;76.30;;;;;;5082495;28;20448;-96
2022/07/21 05:42:56;;;;;;;;;;;22.80;75.90;;;;;;5081563;28;19960;-96
2022/07/21 05:45:22;;;;;;;;;;;22.80;75.70;;;;;;5082749;28;19947;-96
2022/07/21 05:47:47;;;;;;;;;;;23.00;75.80;;;;;;5082211;28;19938;-96
2022/07/21 05:50:13;;;;;;;;;;;23.10;75.80;;;;;;5081464;28;19946;-96
2022/07/21 05:52:39;;;;;;;;;;;23.30;75.50;;;;;;5064144;28;19950;-96
2022/07/21 05:55:06;;;;;;;;;;;23.30;74.30;;;;;;5088364;28;19967;-96
2022/07/21 05:57:33;;;;;;;;;;;23.50;73.80;;;;;;5092682;28;19979;-96
2022/07/21 05:59:59;;;;;;;;;;;23.60;72.10;;;;;;5494104;22;19977;-98
2022/07/21 06:02:32;;;;;;;;;;;23.80;70.30;;;;;;5038598;28;19960;-96
2022/07/21 06:05:06;;;;;;;;;;;24.10;70.00;;;;;;5057022;28;19949;-96
2022/07/21 06:07:32;;;;;;;;;;;24.30;69.30;;;;;;5038132;28;19943;-96
2022/07/21 06:10:07;;;;;;;;;;;24.50;68.10;;;;;;5038868;28;19949;-96
2022/07/21 06:12:36;;;;;;;;;;;24.70;66.90;;;;;;5039793;28;20076;-96
2022/07/21 06:15:02;;;;;;;;;;;24.80;65.70;;;;;;5056175;28;19939;-96
2022/07/21 06:17:32;;;;;;;;;;;25.00;65.20;;;;;;5040136;28;19977;-96
2022/07/21 06:20:07;;;;;;;;;;;25.00;65.00;;;;;;5057197;28;19950;-96
2022/07/21 06:22:36;;;;;;;;;;;25.10;62.40;;;;;;5040504;28;19976;-96
2022/07/21 06:25:05;;;;;;;;;;;25.20;62.30;;;;;;5041867;28;19997;-96
2022/07/21 06:27:31;;;;;;;;;;;25.20;62.60;;;;;;5043155;28;19933;-96
2022/07/21 06:32:33;;;;;;;;;;;25.40;61.60;;;;;;5195489;22;19989;-96
2022/07/21 06:34:59;;;;;;;;;;;25.50;61.30;;;;;;5039263;28;19942;-96
2022/07/21 06:37:24;;;;;;;;;;;25.50;60.70;;;;;;5057257;28;20411;-96
2022/07/21 06:39:50;;;;;;;;;;;25.60;60.70;;;;;;5056984;28;19944;-96
2022/07/21 06:42:15;;;;;;;;;;;25.80;60.50;;;;;;5057178;28;19971;-96
2022/07/21 06:44:41;;;;;;;;;;;25.80;60.10;;;;;;5056927;28;19945;-96
2022/07/21 06:47:06;;;;;;;;;;;25.80;60.30;;;;;;5057034;28;19982;-96
2022/07/21 06:49:32;;;;;;;;;;;25.90;59.90;;;;;;5056714;28;20350;-96
2022/07/21 06:51:57;;;;;;;;;;;26.00;59.00;;;;;;5056852;28;20028;-96
2022/07/21 06:54:23;;;;;;;;;;;26.10;58.30;;;;;;5056254;28;19945;-96
2022/07/21 06:56:49;;;;;;;;;;;26.30;58.70;;;;;;5056113;28;19946;-96
2022/07/21 06:59:14;;;;;;;;;;;26.40;57.10;;;;;;5056416;28;20418;-96
2022/07/21 07:01:40;;;;;;;;;;;26.60;57.50;;;;;;5056317;28;19974;-96
2022/07/21 07:04:05;;;;;;;;;;;26.70;57.00;;;;;;5056243;28;19950;-96
2022/07/21 07:06:31;;;;;;;;;;;26.80;55.70;;;;;;5057349;28;19957;-96
2022/07/21 07:08:57;;;;;;;;;;;26.90;55.20;;;;;;5056299;28;20444;-96
2022/07/21 07:11:22;;;;;;;;;;;27.00;55.80;;;;;;5056586;28;19946;-96
2022/07/21 07:13:48;;;;;;;;;;;27.00;55.70;;;;;;5055800;28;19944;-96
2022/07/21 07:16:13;;;;;;;;;;;27.00;55.80;;;;;;5056374;28;19938;-96
2022/07/21 07:18:39;;;;;;;;;;;27.20;55.60;;;;;;5055838;28;19938;-96
2022/07/21 07:21:05;;;;;;;;;;;27.10;55.90;;;;;;5055624;28;19967;-96
2022/07/21 07:23:30;;;;;;;;;;;27.20;55.90;;;;;;5055685;28;20371;-96
2022/07/21 07:25:56;;;;;;;;;;;27.20;54.70;;;;;;5056299;28;19940;-96
2022/07/21 07:28:21;;;;;;;;;;;27.30;55.10;;;;;;5038192;28;20329;-96
2022/07/21 07:30:48;;;;;;;;;;;27.40;55.80;;;;;;5057340;28;19937;-96
2022/07/21 07:33:14;;;;;;;;;;;27.50;54.00;;;;;;5055574;28;20018;-96
2022/07/21 07:35:39;;;;;;;;;;;27.60;53.50;;;;;;5055437;28;19952;-96
2022/07/21 07:38:05;;;;;;;;;;;27.60;52.30;;;;;;5055392;28;19937;-96
2022/07/21 07:40:30;;;;;;;;;;;27.70;52.70;;;;;;5055556;28;19942;-96
2022/07/21 07:42:56;;;;;;;;;;;27.80;51.60;;;;;;5037385;28;19944;-96
2022/07/21 07:45:22;;;;;;;;;;;27.90;50.90;;;;;;5055492;28;19946;-96
2022/07/21 07:47:47;;;;;;;;;;;28.00;51.20;;;;;;5055265;28;19946;-96
2022/07/21 07:50:14;;;;;;;;;;;28.20;49.90;;;;;;5055026;28;19943;-96
2022/07/21 07:52:40;;;;;;;;;;;28.30;49.30;;;;;;5055092;28;19941;-96
2022/07/21 07:55:10;;;;;;;;;;;28.30;49.00;;;;;;5055043;28;19940;-96
2022/07/21 07:57:35;;;;;;;;;;;28.50;48.80;;;;;;5054867;28;19935;-96
2022/07/21 08:00:03;;;;;;;;;;;28.70;47.30;;;;;;5054960;28;19951;-96
2022/07/21 08:02:28;;;;;;;;;;;28.80;47.10;;;;;;5054984;28;19956;-96
2022/07/21 08:04:54;;;;;;;;;;;28.90;48.20;;;;;;5054835;28;20031;-96
2022/07/21 08:07:19;;;;;;;;;;;29.00;47.10;;;;;;5055020;28;20456;-96
2022/07/21 08:09:47;;;;;;;;;;;29.00;47.50;;;;;;5057698;28;19958;-96
2022/07/21 08:12:12;;;;;;;;;;;29.10;46.40;;;;;;5044282;28;19947;-96
2022/07/21 08:14:38;;;;;;;;;;;29.20;46.20;;;;;;5040964;28;19983;-96
2022/07/21 08:17:04;;;;;;;;;;;29.20;44.30;;;;;;5039300;28;19945;-95
2022/07/21 08:19:30;;;;;;;;;;;29.30;44.60;;;;;;5054830;28;20012;-96
2022/07/21 08:21:55;;;;;;;;;;;29.30;44.50;;;;;;5058170;28;19966;-96
2022/07/21 08:24:21;;;;;;;;;;;29.50;44.00;;;;;;5058719;28;20399;-96
2022/07/21 08:26:46;;;;;;;;;;;29.50;43.10;;;;;;5041058;28;19939;-96
2022/07/21 08:29:12;;;;;;;;;;;29.70;43.70;;;;;;5060472;28;19948;-96
2022/07/21 08:31:38;;;;;;;;;;;29.70;44.70;;;;;;5061236;28;19937;-96
2022/07/21 08:34:03;;;;;;;;;;;29.80;41.90;;;;;;5059549;28;20046;-96
2022/07/21 08:36:29;;;;;;;;;;;29.90;44.10;;;;;;5060127;28;20049;-96
2022/07/21 08:38:54;;;;;;;;;;;29.90;40.60;;;;;;5041353;28;19950;-97
2022/07/21 08:41:20;;;;;;;;;;;30.00;41.60;;;;;;5040611;28;19965;-96
2022/07/21 08:43:47;;;;;;;;;;;30.10;40.30;;;;;;5058567;28;19946;-96
2022/07/21 08:46:14;;;;;;;;;;;30.20;41.80;;;;;;5043688;28;20022;-96
2022/07/21 08:48:40;;;;;;;;;;;30.20;41.60;;;;;;5065046;28;20079;-96
2022/07/21 08:51:07;;;;;;;;;;;30.30;41.10;;;;;;5065445;28;19938;-96
2022/07/21 08:53:32;;;;;;;;;;;30.40;42.30;;;;;;5047437;28;19947;-96
2022/07/21 08:55:58;;;;;;;;;;;30.60;40.80;;;;;;5047874;28;19954;-96
2022/07/21 08:58:24;;;;;;;;;;;30.70;39.80;;;;;;5065022;28;20310;-96
2022/07/21 09:00:50;;;;;;;;;;;30.80;40.40;;;;;;5066566;28;19941;-96
2022/07/21 09:03:21;;;;;;;;;;;30.90;40.10;;;;;;5050332;28;19972;-96
2022/07/21 09:06:07;;;;;;;;;;;31.00;37.90;;;;;;5072443;28;20037;-96
2022/07/21 09:08:37;;;;;;;;;;;31.10;41.00;;;;;;5055196;28;19951;-97
2022/07/21 09:11:12;;;;;;;;;;;31.10;41.30;;;;;;5055079;28;19949;-96
2022/07/21 09:13:39;;;;;;;;;;;31.20;40.30;;;;;;5054710;28;19945;-96
2022/07/21 09:16:06;;;;;;;;;;;31.20;38.10;;;;;;5054862;28;19943;-96
2022/07/21 09:18:31;;;;;;;;;;;31.20;38.30;;;;;;5055518;28;19939;-96
2022/07/21 09:21:01;;;;;;;;;;;31.30;35.80;;;;;;5055450;28;19970;-96
2022/07/21 09:23:29;;;;;;;;;;;31.30;37.10;;;;;;5054368;28;19946;-96
2022/07/21 09:25:58;;;;;;;;;;;31.50;38.60;;;;;;5057328;28;19967;-96
2022/07/21 09:28:32;;;;;;;;;;;31.50;39.70;;;;;;5062356;28;19952;-96
2022/07/21 09:31:06;;;;;;;;;;;31.50;34.60;;;;;;5062907;28;19923;-96
2022/07/21 09:33:32;;;;;;;;;;;31.60;36.40;;;;;;5077891;28;19981;-96
2022/07/21 09:36:08;;;;;;;;;;;31.60;35.30;;;;;;5081315;28;19967;-97
2022/07/21 09:38:39;;;;;;;;;;;31.70;38.80;;;;;;5081385;28;20026;-96
2022/07/21 09:41:17;;;;;;;;;;;31.80;37.90;;;;;;5064717;28;19977;-96
2022/07/21 09:43:44;;;;;;;;;;;31.90;36.30;;;;;;5080274;28;19984;-96
2022/07/21 09:46:14;;;;;;;;;;;32.00;36.00;;;;;;5075017;28;19948;-96
2022/07/21 09:48:40;;;;;;;;;;;32.10;38.60;;;;;;5074746;28;19961;-96
2022/07/21 09:51:21;;;;;;;;;;;32.20;35.00;;;;;;5064076;28;19941;-96
2022/07/21 09:53:55;;;;;;;;;;;32.30;36.50;;;;;;5091641;28;19972;-96
2022/07/21 09:56:21;;;;;;;;;;;32.40;35.70;;;;;;5089528;28;19975;-96
2022/07/21 09:58:47;;;;;;;;;;;32.50;33.40;;;;;;5071798;28;19988;-96
2022/07/21 10:01:14;;;;;;;;;;;32.60;32.70;;;;;;5088720;28;19966;-96
2022/07/21 10:03:40;;;;;;;;;;;32.60;31.60;;;;;;5070750;28;19985;-96
2022/07/21 10:06:06;;;;;;;;;;;32.70;32.60;;;;;;5069147;28;19942;-96
2022/07/21 10:08:33;;;;;;;;;;;32.70;31.00;;;;;;5086156;28;19941;-96
2022/07/21 10:10:59;;;;;;;;;;;32.80;32.00;;;;;;5087048;28;19938;-96
2022/07/21 10:13:25;;;;;;;;;;;32.80;29.10;;;;;;5086696;28;20039;-96
2022/07/21 10:15:50;;;;;;;;;;;32.90;29.70;;;;;;5068473;28;19940;-96
2022/07/21 10:18:17;;;;;;;;;;;33.00;29.70;;;;;;5086460;28;19939;-96
2022/07/21 10:20:46;;;;;;;;;;;33.00;30.70;;;;;;5089161;28;19939;-96
2022/07/21 10:23:28;;;;;;;;;;;33.10;30.60;;;;;;5087828;28;19938;-96
2022/07/21 10:25:54;;;;;;;;;;;33.10;32.50;;;;;;5071139;28;19943;-96
2022/07/21 10:28:22;;;;;;;;;;;33.20;31.60;;;;;;5088533;28;19971;-96
2022/07/21 10:30:54;;;;;;;;;;;33.20;30.20;;;;;;5069978;28;19944;-96
2022/07/21 10:33:20;;;;;;;;;;;33.30;30.80;;;;;;5063738;28;19991;-96
2022/07/21 10:35:47;;;;;;;;;;;33.30;30.50;;;;;;5065427;28;19960;-96
2022/07/21 10:38:32;;;;;;;;;;;33.30;31.30;;;;;;5066361;28;19943;-96
2022/07/21 10:40:59;;;;;;;;;;;33.50;32.60;;;;;;5064770;28;19962;-96
2022/07/21 10:43:24;;;;;;;;;;;33.70;33.30;;;;;;5070037;28;19983;-96
2022/07/21 10:45:51;;;;;;;;;;;33.80;33.10;;;;;;5070529;28;20302;-96
2022/07/21 10:48:35;;;;;;;;;;;33.90;30.80;;;;;;5069774;28;19941;-96
2022/07/21 10:51:02;;;;;;;;;;;34.00;30.10;;;;;;5068599;28;19941;-96
2022/07/21 10:53:28;;;;;;;;;;;34.00;28.80;;;;;;5069943;28;19943;-96
2022/07/21 10:55:55;;;;;;;;;;;34.10;31.10;;;;;;5068453;28;19951;-96
2022/07/21 10:58:25;;;;;;;;;;;34.20;30.50;;;;;;5067630;28;19942;-96
2022/07/21 11:00:51;;;;;;;;;;;34.10;27.50;;;;;;5068043;28;19940;-96
2022/07/21 11:03:30;;;;;;;;;;;34.20;29.00;;;;;;5063108;28;20077;-96
2022/07/21 11:06:05;;;;;;;;;;;34.40;30.70;;;;;;5063256;28;19947;-96
2022/07/21 11:08:41;;;;;;;;;;;34.50;29.10;;;;;;5061837;28;19993;-96
2022/07/21 11:11:09;;;;;;;;;;;34.60;27.40;;;;;;5062624;28;19941;-96
2022/07/21 11:13:53;;;;;;;;;;;34.60;28.60;;;;;;5064525;28;19934;-96
2022/07/21 11:16:19;;;;;;;;;;;34.70;29.60;;;;;;5065462;28;19936;-96
2022/07/21 11:18:44;;;;;;;;;;;34.80;28.00;;;;;;5065245;28;20383;-96
2022/07/21 11:21:11;;;;;;;;;;;35.00;32.10;;;;;;5065500;28;19970;-96
2022/07/21 11:23:42;;;;;;;;;;;35.10;30.50;;;;;;5064337;28;19949;-96
2022/07/21 11:26:08;;;;;;;;;;;35.10;27.70;;;;;;5064813;28;19940;-96
2022/07/21 11:28:34;;;;;;;;;;;35.10;29.10;;;;;;5064528;28;19951;-96
2022/07/21 11:31:21;;;;;;;;;;;35.10;30.00;;;;;;5063093;28;19953;-96
2022/07/21 11:33:47;;;;;;;;;;;35.10;28.90;;;;;;5062900;28;19977;-96
2022/07/21 11:36:23;;;;;;;;;;;35.30;28.10;;;;;;5061548;28;19963;-96
2022/07/21 11:38:59;;;;;;;;;;;35.30;28.00;;;;;;5066352;28;19943;-96
2022/07/21 11:41:30;;;;;;;;;;;35.50;29.30;;;;;;5069999;28;19962;-96
2022/07/21 11:44:04;;;;;;;;;;;35.60;28.50;;;;;;5070922;28;19962;-96
2022/07/21 11:46:47;;;;;;;;;;;35.70;32.50;;;;;;5066661;28;19941;-96
2022/07/21 11:49:13;;;;;;;;;;;35.80;29.50;;;;;;5062931;28;20114;-96
2022/07/21 11:51:45;;;;;;;;;;;35.90;28.80;;;;;;5059113;28;20355;-96
2022/07/21 11:54:25;;;;;;;;;;;35.90;27.80;;;;;;5058080;28;20002;-96
2022/07/21 11:59:27;;;;;;;;;;;36.00;27.50;;;;;;4910785;26;19990;-96
2022/07/21 12:01:54;;;;;;;;;;;35.90;27.70;;;;;;5051887;28;19959;-96
2022/07/21 12:04:26;;;;;;;;;;;36.00;27.30;;;;;;5050726;28;19921;-96
2022/07/21 12:06:52;;;;;;;;;;;36.20;26.10;;;;;;5042600;28;19945;-96
2022/07/21 12:09:26;;;;;;;;;;;36.60;26.90;;;;;;5048041;28;20377;-96
2022/07/21 12:11:52;;;;;;;;;;;37.00;27.40;;;;;;5010064;28;19957;-96
2022/07/21 12:14:18;;;;;;;;;;;37.50;28.10;;;;;;5037717;28;19943;-96
2022/07/21 12:16:47;;;;;;;;;;;37.70;26.60;;;;;;5039031;28;20392;-96
2022/07/21 12:19:15;;;;;;;;;;;38.20;27.80;;;;;;5037991;28;19992;-96
2022/07/21 12:21:59;;;;;;;;;;;38.20;26.20;;;;;;5034996;28;20035;-96
2022/07/21 12:24:44;;;;;;;;;;;38.20;27.80;;;;;;5034742;28;19956;-96
2022/07/21 12:27:11;;;;;;;;;;;38.30;26.50;;;;;;5034347;28;19940;-96
2022/07/21 12:29:41;;;;;;;;;;;38.20;25.20;;;;;;5047234;28;20027;-96
2022/07/21 12:32:58;;;;;;;;;;;37.80;27.60;;;;;;5049297;28;19941;-96
2022/07/21 12:38:19;;;;;;;;;;;38.10;27.40;;;;;;5539280;23;19961;-96
2022/07/21 12:40:50;;;;;;;;;;;38.00;25.70;;;;;;5077878;28;19947;-96
2022/07/21 12:43:18;;;;;;;;;;;38.50;24.00;;;;;;5055309;28;19931;-96
2022/07/21 12:45:57;;;;;;;;;;;38.60;23.20;;;;;;5060423;28;20371;-96
2022/07/21 12:48:23;;;;;;;;;;;38.80;23.10;;;;;;5073787;28;19944;-96
2022/07/21 12:50:59;;;;;;;;;;;39.20;23.40;;;;;;5051136;28;19949;-96
2022/07/21 12:56:00;;;;;;;;;;;38.90;24.70;;;;;;4603036;26;19978;-96
2022/07/21 12:58:26;;;;;;;;;;;39.00;25.30;;;;;;5062519;28;19944;-96
2022/07/21 13:00:52;;;;;;;;;;;38.80;24.10;;;;;;5070194;28;19998;-96
2022/07/21 13:03:19;;;;;;;;;;;39.20;24.50;;;;;;5055074;28;19971;-96
2022/07/21 13:05:48;;;;;;;;;;;39.30;24.50;;;;;;5076010;28;19930;-96
2022/07/21 13:08:47;;;;;;;;;;;40.10;24.20;;;;;;5073268;28;19929;-96
2022/07/21 13:11:21;;;;;;;;;;;40.50;23.10;;;;;;5059337;28;19948;-96
2022/07/21 13:13:47;;;;;;;;;;;41.00;23.00;;;;;;5071690;28;19982;-96
2022/07/21 13:21:46;;;;;;;;;;;42.70;21.00;;;;;;5073553;23;20114;-96
2022/07/21 13:24:12;;;;;;;;;;;41.60;21.00;;;;;;5069460;28;20297;-96
2022/07/21 13:26:38;;;;;;;;;;;41.60;22.50;;;;;;5052376;28;19941;-96
2022/07/21 13:29:07;;;;;;;;;;;41.80;22.80;;;;;;5049551;28;19952;-96
2022/07/21 13:31:36;;;;;;;;;;;42.40;22.80;;;;;;5065643;28;19979;-96
2022/07/21 13:34:07;;;;;;;;;;;42.60;21.40;;;;;;5047257;28;19952;-96
2022/07/21 13:36:37;;;;;;;;;;;42.70;22.90;;;;;;5082360;28;19942;-96
2022/07/21 13:39:06;;;;;;;;;;;42.80;24.40;;;;;;5071426;28;19946;-96
2022/07/21 13:41:32;;;;;;;;;;;43.00;20.90;;;;;;5068450;28;19965;-96
2022/07/21 13:43:58;;;;;;;;;;;42.80;20.30;;;;;;5071332;28;20005;-96
2022/07/21 13:46:24;;;;;;;;;;;43.10;20.40;;;;;;5073048;28;19955;-96
2022/07/21 13:48:51;;;;;;;;;;;43.50;18.90;;;;;;5075764;28;19944;-96
2022/07/21 13:51:18;;;;;;;;;;;43.80;18.80;;;;;;5074882;28;19949;-96
2022/07/21 13:53:49;;;;;;;;;;;43.30;18.50;;;;;;5096236;28;19936;-96
2022/07/21 13:56:19;;;;;;;;;;;44.20;18.90;;;;;;5075863;28;19960;-96
2022/07/21 13:58:53;;;;;;;;;;;44.40;17.80;;;;;;5095927;28;19946;-96
2022/07/21 14:01:21;;;;;;;;;;;44.90;17.90;;;;;;5093930;28;19944;-96
2022/07/21 14:03:48;;;;;;;;;;;44.60;18.30;;;;;;5077351;28;19971;-96
2022/07/21 14:06:14;;;;;;;;;;;44.40;18.40;;;;;;5060174;28;19951;-96
2022/07/21 14:08:42;;;;;;;;;;;43.20;18.70;;;;;;5074271;28;19966;-96
2022/07/21 14:11:09;;;;;;;;;;;42.50;18.60;;;;;;5074617;28;19940;-96
2022/07/21 14:13:35;;;;;;;;;;;41.40;20.00;;;;;;5092406;28;19931;-96
2022/07/21 14:27:18;;;;;;;;;;;41.90;21.10;;;;;;5650797;23;20021;-96
2022/07/21 14:29:46;;;;;;;;;;;42.00;20.00;;;;;;4992649;28;19962;-96
2022/07/21 14:32:22;;;;;;;;;;;41.90;20.10;;;;;;4974172;28;19949;-96
2022/07/21 14:34:49;;;;;;;;;;;42.40;18.40;;;;;;4964421;28;20391;-96
2022/07/21 14:37:15;;;;;;;;;;;43.40;19.40;;;;;;4960545;28;19965;-96
2022/07/21 14:39:40;;;;;;;;;;;44.10;19.40;;;;;;4958653;29;19941;-96
2022/07/21 14:42:06;;;;;;;;;;;45.00;19.70;;;;;;4941266;29;20391;-96
2022/07/21 14:44:32;;;;;;;;;;;45.40;17.50;;;;;;4958689;29;19943;-96
2022/07/21 14:46:57;;;;;;;;;;;44.50;18.90;;;;;;4958933;29;20028;-96
2022/07/21 14:49:23;;;;;;;;;;;44.80;18.30;;;;;;4958674;29;19997;-96